createdAt,value
2023-05-21T00:00:17.133Z,97827.20
2023-05-21T00:04:26.275Z,97824.60
2023-05-21T00:08:15.582Z,97818.40
2023-05-21T00:12:04.851Z,97814.80
2023-05-21T00:15:52.975Z,97810.20
2023-05-21T00:19:42.050Z,97806.20
2023-05-21T00:23:31.082Z,97803.80
2023-05-21T00:27:20.598Z,97808.20
2023-05-21T00:31:10.109Z,97803.60
2023-05-21T00:34:59.278Z,97798.40
2023-05-21T00:38:48.526Z,97805.60
2023-05-21T00:42:37.648Z,97806.20
2023-05-21T00:46:26.853Z,97805.40
2023-05-21T00:50:16.274Z,97793.60
2023-05-21T00:54:04.903Z,97792.60
2023-05-21T00:57:54.301Z,97791.80
2023-05-21T01:01:43.704Z,97789.80
2023-05-21T01:05:35.859Z,97784.60
2023-05-21T01:09:25.144Z,97782.00
2023-05-21T01:13:14.333Z,97787.40
2023-05-21T01:17:03.818Z,97787.20
2023-05-21T01:20:46.495Z,97779.00
2023-05-21T01:24:35.796Z,97774.20
2023-05-21T01:28:24.998Z,97771.60
2023-05-21T01:32:12.254Z,97770.80
2023-05-21T01:36:03.039Z,97763.80
2023-05-21T01:39:40.705Z,97750.20
2023-05-21T01:43:29.784Z,97749.40
2023-05-21T01:47:18.911Z,97751.60
2023-05-21T01:51:08.212Z,97748.20
2023-05-21T01:54:57.278Z,97752.60
2023-05-21T01:58:46.694Z,97757.60
2023-05-21T02:02:35.822Z,97760.20
2023-05-21T02:06:27.573Z,97766.40
2023-05-21T02:10:19.913Z,97759.00
2023-05-21T02:14:03.219Z,97756.00
2023-05-21T02:17:52.465Z,97750.00
2023-05-21T02:21:41.688Z,97744.80
2023-05-21T02:25:30.871Z,97746.20
2023-05-21T02:29:19.988Z,97744.80
2023-05-21T02:33:09.531Z,97746.20
2023-05-21T02:36:58.875Z,97744.80
2023-05-21T02:40:48.113Z,97740.60
2023-05-21T02:44:37.158Z,97733.80
2023-05-21T02:48:08.883Z,97726.80
2023-05-21T02:51:58.485Z,97729.60
2023-05-21T02:55:47.824Z,97738.20
2023-05-21T02:59:37.101Z,97743.80
2023-05-21T03:03:26.540Z,97731.80
2023-05-21T03:07:10.356Z,97740.00
2023-05-21T03:10:59.601Z,97730.80
2023-05-21T03:14:48.586Z,97729.40
2023-05-21T03:18:37.839Z,97726.00
2023-05-21T03:22:26.154Z,97724.40
2023-05-21T03:26:15.100Z,97724.40
2023-05-21T03:30:06.635Z,97720.80
2023-05-21T03:33:57.450Z,97729.60
2023-05-21T03:37:46.365Z,97715.80
2023-05-21T03:41:35.616Z,97715.20
2023-05-21T03:45:30.717Z,97720.20
2023-05-21T03:49:22.588Z,97727.00
2023-05-21T03:53:11.654Z,97723.00
2023-05-21T03:57:00.727Z,97729.20
2023-05-21T04:00:42.226Z,97729.60
2023-05-21T04:04:31.328Z,97726.20
2023-05-21T04:08:20.434Z,97729.00
2023-05-21T04:12:09.554Z,97728.40
2023-05-21T04:15:58.952Z,97734.00
2023-05-21T04:19:48.078Z,97732.00
2023-05-21T04:23:37.193Z,97730.40
2023-05-21T04:27:27.060Z,97729.60
2023-05-21T04:31:19.453Z,97726.60
2023-05-21T04:35:08.523Z,97731.60
2023-05-21T04:38:57.808Z,97732.80
2023-05-21T04:42:47.110Z,97734.60
2023-05-21T04:46:36.144Z,97738.20
2023-05-21T04:50:25.181Z,97730.00
2023-05-21T04:54:14.176Z,97734.60
2023-05-21T04:58:03.233Z,97730.40
2023-05-21T05:01:52.428Z,97730.40
2023-05-21T05:05:41.597Z,97730.60
2023-05-21T05:09:30.691Z,97726.20
2023-05-21T05:13:19.969Z,97721.00
2023-05-21T05:17:09.074Z,97722.80
2023-05-21T05:20:58.152Z,97717.40
2023-05-21T05:24:47.132Z,97719.20
2023-05-21T05:28:36.212Z,97713.60
2023-05-21T05:32:25.466Z,97714.80
2023-05-21T05:36:14.549Z,97712.00
2023-05-21T05:40:03.631Z,97716.00
2023-05-21T05:43:32.459Z,97708.20
2023-05-21T05:47:21.590Z,97706.20
2023-05-21T05:51:10.773Z,97701.60
2023-05-21T05:55:23.674Z,97696.40
2023-05-21T05:59:13.042Z,97700.40
2023-05-21T06:03:02.160Z,97695.20
2023-05-21T06:06:51.346Z,97691.60
2023-05-21T06:10:23.437Z,97695.80
2023-05-21T06:14:12.604Z,97696.60
2023-05-21T06:18:01.852Z,97696.60
2023-05-21T06:21:50.902Z,97696.20
2023-05-21T06:25:40.135Z,97695.40
2023-05-21T06:29:29.378Z,97694.80
2023-05-21T06:33:18.689Z,97689.20
2023-05-21T06:37:08.148Z,97685.80
2023-05-21T06:41:18.040Z,97686.80
2023-05-21T06:45:09.650Z,97677.80
2023-05-21T06:48:59.346Z,97674.00
2023-05-21T06:52:50.304Z,97670.40
2023-05-21T06:56:48.276Z,97672.00
2023-05-21T07:00:27.221Z,97666.20
2023-05-21T07:04:16.316Z,97659.60
2023-05-21T07:07:40.622Z,97651.40
2023-05-21T07:11:19.949Z,97650.00
2023-05-21T07:14:49.143Z,97642.60
2023-05-21T07:18:38.607Z,97638.00
2023-05-21T07:22:28.438Z,97635.20
2023-05-21T07:26:17.677Z,97634.20
2023-05-21T07:30:05.755Z,97632.60
2023-05-21T07:33:25.620Z,97638.40
2023-05-21T07:37:14.724Z,97634.60
2023-05-21T07:40:49.026Z,97632.20
2023-05-21T07:44:38.316Z,97635.60
2023-05-21T07:47:59.920Z,97635.40
2023-05-21T07:51:22.146Z,97637.00
2023-05-21T07:55:01.788Z,97636.60
2023-05-21T07:58:50.992Z,97627.40
2023-05-21T08:02:40.100Z,97625.00
2023-05-21T08:05:52.488Z,97622.60
2023-05-21T08:09:41.597Z,97621.60
2023-05-21T08:13:01.101Z,97623.60
2023-05-21T08:15:40.833Z,97625.80
2023-05-21T08:19:00.236Z,97621.40
2023-05-21T08:22:49.424Z,97617.40
2023-05-21T08:25:54.038Z,97616.00
2023-05-21T08:29:07.430Z,97614.20
2023-05-21T08:32:49.356Z,97611.60
2023-05-21T08:35:59.668Z,97614.60
2023-05-21T08:39:34.571Z,97616.40
2023-05-21T08:43:14.216Z,97614.60
2023-05-21T08:46:37.830Z,97614.20
2023-05-21T08:49:48.221Z,97612.20
2023-05-21T08:53:27.439Z,97609.60
2023-05-21T08:56:50.758Z,97603.80
2023-05-21T09:00:01.536Z,97607.60
2023-05-21T09:03:33.830Z,97609.20
2023-05-21T09:07:11.566Z,97607.80
2023-05-21T09:11:09.257Z,97606.40
2023-05-21T09:14:13.213Z,97606.60
2023-05-21T09:17:15.424Z,97604.40
2023-05-21T09:20:33.810Z,97604.20
2023-05-21T09:23:42.560Z,97603.80
2023-05-21T09:26:46.342Z,97603.40
2023-05-21T09:29:42.312Z,97606.40
2023-05-21T09:32:40.474Z,97597.20
2023-05-21T09:36:04.839Z,97599.60
2023-05-21T09:39:33.113Z,97589.20
2023-05-21T09:42:53.651Z,97592.80
2023-05-21T09:46:25.944Z,97595.20
2023-05-21T09:49:35.026Z,97589.60
2023-05-21T09:53:06.634Z,97587.60
2023-05-21T09:56:19.981Z,97589.80
2023-05-21T09:59:33.928Z,97583.40
2023-05-21T10:02:23.601Z,97579.80
2023-05-21T10:05:08.348Z,97576.40
2023-05-21T10:08:15.594Z,97567.60
2023-05-21T10:11:16.357Z,97573.20
2023-05-21T10:14:07.363Z,97570.20
2023-05-21T10:17:19.000Z,97564.20
2023-05-21T10:20:26.248Z,97559.60
2023-05-21T10:23:16.007Z,97554.00
2023-05-21T10:26:27.879Z,97554.20
2023-05-21T10:29:19.797Z,97551.20
2023-05-21T10:32:01.986Z,97552.60
2023-05-21T10:34:39.430Z,97544.40
2023-05-21T10:37:22.020Z,97538.00
2023-05-21T10:40:01.598Z,97536.60
2023-05-21T10:42:33.089Z,97531.20
2023-05-21T10:45:22.949Z,97524.60
2023-05-21T10:48:33.045Z,97522.60
2023-05-21T10:51:31.282Z,97518.60
2023-05-21T10:54:43.346Z,97524.80
2023-05-21T10:57:46.285Z,97524.60
2023-05-21T11:00:20.778Z,97509.20
2023-05-21T11:02:52.361Z,97511.80
2023-05-21T11:05:55.197Z,97505.20
2023-05-21T11:08:28.168Z,97507.40
2023-05-21T11:10:58.382Z,97497.20
2023-05-21T11:13:38.991Z,97509.80
2023-05-21T11:16:21.936Z,97500.60
2023-05-21T11:18:50.502Z,97503.40
2023-05-21T11:21:21.813Z,97502.40
2023-05-21T11:23:56.935Z,97504.20
2023-05-21T11:26:27.169Z,97499.00
2023-05-21T11:29:04.500Z,97500.40
2023-05-21T11:31:40.101Z,97514.20
2023-05-21T11:34:15.618Z,97515.60
2023-05-21T11:36:47.428Z,97490.40
2023-05-21T11:39:21.882Z,97489.00
2023-05-21T11:42:07.897Z,97489.80
2023-05-21T11:44:42.262Z,97490.00
2023-05-21T11:47:18.973Z,97490.00
2023-05-21T11:49:47.108Z,97476.80
2023-05-21T11:52:15.729Z,97473.20
2023-05-21T11:54:46.550Z,97474.60
2023-05-21T11:57:16.949Z,97482.80
2023-05-21T11:59:48.808Z,97474.60
2023-05-21T12:02:21.146Z,97474.60
2023-05-21T12:05:01.151Z,97471.20
2023-05-21T12:07:40.858Z,97473.80
2023-05-21T12:10:33.171Z,97473.20
2023-05-21T12:13:24.144Z,97475.00
2023-05-21T12:16:23.426Z,97484.00
2023-05-21T12:19:04.196Z,97479.00
2023-05-21T12:21:53.094Z,97475.40
2023-05-21T12:24:43.814Z,97476.20
2023-05-21T12:27:21.649Z,97471.60
2023-05-21T12:30:04.108Z,97466.20
2023-05-21T12:32:44.609Z,97462.60
2023-05-21T12:35:32.413Z,97460.20
2023-05-21T12:38:07.411Z,97448.00
2023-05-21T12:40:45.884Z,97447.80
2023-05-21T12:43:35.147Z,97450.40
2023-05-21T12:46:19.876Z,97459.00
2023-05-21T12:49:31.801Z,97449.80
2023-05-21T12:52:24.898Z,97447.20
2023-05-21T12:55:18.793Z,97447.20
2023-05-21T12:58:10.301Z,97439.80
2023-05-21T13:01:14.230Z,97431.60
2023-05-21T13:04:04.540Z,97421.20
2023-05-21T13:06:56.117Z,97434.00
2023-05-21T13:09:41.970Z,97440.00
2023-05-21T13:12:23.344Z,97432.80
2023-05-21T13:15:00.270Z,97433.00
2023-05-21T13:17:44.490Z,97426.00
2023-05-21T13:20:26.742Z,97419.60
2023-05-21T13:22:59.999Z,97418.00
2023-05-21T13:25:51.723Z,97415.60
2023-05-21T13:28:23.945Z,97406.80
2023-05-21T13:30:58.000Z,97417.00
2023-05-21T13:33:32.400Z,97428.00
2023-05-21T13:36:06.147Z,97420.60
2023-05-21T13:38:40.983Z,97424.40
2023-05-21T13:41:12.946Z,97422.20
2023-05-21T13:43:50.001Z,97416.60
2023-05-21T13:46:21.439Z,97414.80
2023-05-21T13:48:52.515Z,97417.80
2023-05-21T13:54:01.639Z,97417.40
2023-05-21T13:56:34.028Z,97411.80
2023-05-21T13:59:18.398Z,97415.60
2023-05-21T14:01:58.205Z,97405.60
2023-05-21T14:04:39.685Z,97398.60
2023-05-21T14:07:15.989Z,97398.60
2023-05-21T14:09:52.660Z,97397.40
2023-05-21T14:13:11.222Z,97386.60
2023-05-21T14:15:57.476Z,97390.40
2023-05-21T14:18:34.964Z,97396.00
2023-05-21T14:21:15.177Z,97389.80
2023-05-21T14:23:46.715Z,97400.40
2023-05-21T14:26:15.910Z,97398.40
2023-05-21T14:28:58.382Z,97397.00
2023-05-21T14:32:46.720Z,97399.80
2023-05-21T14:35:47.999Z,97390.40
2023-05-21T14:38:39.158Z,97384.80
2023-05-21T14:41:50.266Z,97378.20
2023-05-21T14:46:10.699Z,97377.80
2023-05-21T14:48:39.825Z,97377.00
2023-05-21T14:51:14.247Z,97379.00
2023-05-21T14:53:57.351Z,97371.40
2023-05-21T14:56:41.086Z,97365.20
2023-05-21T14:59:32.817Z,97365.40
2023-05-21T15:02:21.953Z,97371.40
2023-05-21T15:05:26.842Z,97379.40
2023-05-21T15:08:31.752Z,97388.60
2023-05-21T15:11:34.323Z,97414.80
2023-05-21T15:14:57.079Z,97406.40
2023-05-21T15:18:01.850Z,97421.80
2023-05-21T15:21:30.888Z,97423.00
2023-05-21T15:24:39.570Z,97418.80
2023-05-21T15:27:54.503Z,97410.40
2023-05-21T15:31:33.662Z,97411.40
2023-05-21T15:35:09.907Z,97400.20
2023-05-21T15:38:49.290Z,97401.80
2023-05-21T15:42:36.961Z,97399.40
2023-05-21T15:46:26.262Z,97396.60
2023-05-21T15:50:09.895Z,97406.40
2023-05-21T15:53:49.018Z,97413.80
2023-05-21T15:57:38.548Z,97408.00
2023-05-21T16:01:33.685Z,97400.20
2023-05-21T16:06:15.046Z,97405.40
2023-05-21T16:09:15.756Z,97408.80
2023-05-21T16:12:33.817Z,97396.40
2023-05-21T16:16:16.462Z,97391.60
2023-05-21T16:20:05.695Z,97388.40
2023-05-21T16:23:54.909Z,97388.80
2023-05-21T16:27:26.268Z,97405.20
2023-05-21T16:31:15.552Z,97401.40
2023-05-21T16:35:04.623Z,97403.20
2023-05-21T16:38:19.263Z,97398.40
2023-05-21T16:41:51.336Z,97398.80
2023-05-21T16:45:44.084Z,97406.20
2023-05-21T16:49:06.694Z,97409.00
2023-05-21T16:52:39.874Z,97405.00
2023-05-21T16:56:08.850Z,97404.00
2023-05-21T16:59:57.190Z,97409.00
2023-05-21T17:03:06.028Z,97408.80
2023-05-21T17:06:35.118Z,97408.00
2023-05-21T17:10:07.484Z,97408.80
2023-05-21T17:13:20.730Z,97408.80
2023-05-21T17:16:51.382Z,97404.40
2023-05-21T17:20:40.313Z,97408.60
2023-05-21T17:23:59.251Z,97415.80
2023-05-21T17:27:11.395Z,97418.40
2023-05-21T17:30:40.486Z,97422.00
2023-05-21T17:33:52.281Z,97431.80
2023-05-21T17:37:22.879Z,97432.40
2023-05-21T17:40:44.429Z,97436.00
2023-05-21T17:44:15.612Z,97432.20
2023-05-21T17:48:04.976Z,97439.20
2023-05-21T17:51:36.990Z,97438.80
2023-05-21T17:55:26.012Z,97439.80
2023-05-21T17:58:50.891Z,97438.00
2023-05-21T18:02:40.204Z,97443.60
2023-05-21T18:06:15.147Z,97443.80
2023-05-21T18:09:39.973Z,97443.40
2023-05-21T18:13:29.015Z,97439.20
2023-05-21T18:17:08.464Z,97445.20
2023-05-21T18:20:57.824Z,97439.00
2023-05-21T18:24:46.573Z,97437.80
2023-05-21T18:28:30.024Z,97441.40
2023-05-21T18:32:10.855Z,97443.20
2023-05-21T18:35:39.954Z,97444.40
2023-05-21T18:39:29.622Z,97448.00
2023-05-21T18:43:18.910Z,97449.00
2023-05-21T18:47:08.330Z,97454.20
2023-05-21T18:50:57.623Z,97458.40
2023-05-21T18:54:47.879Z,97461.80
2023-05-21T18:58:37.174Z,97470.00
2023-05-21T19:02:26.371Z,97472.40
2023-05-21T19:06:15.614Z,97471.00
2023-05-21T19:10:05.125Z,97477.20
2023-05-21T19:13:54.035Z,97476.80
2023-05-21T19:17:43.187Z,97477.20
2023-05-21T19:21:35.272Z,97483.40
2023-05-21T19:25:24.576Z,97487.80
2023-05-21T19:29:13.741Z,97486.40
2023-05-21T19:33:03.062Z,97495.20
2023-05-21T19:36:58.684Z,97500.80
2023-05-21T19:40:48.435Z,97523.40
2023-05-21T19:44:36.984Z,97534.20
2023-05-21T19:48:29.219Z,97543.20
2023-05-21T19:52:21.103Z,97536.60
2023-05-21T19:56:10.396Z,97535.20
2023-05-21T20:00:02.092Z,97535.20
2023-05-21T20:03:51.910Z,97531.40
2023-05-21T20:07:41.187Z,97538.80
2023-05-21T20:11:30.456Z,97539.80
2023-05-21T20:15:19.636Z,97537.40
2023-05-21T20:19:08.993Z,97534.60
2023-05-21T20:23:01.281Z,97535.40
2023-05-21T20:26:44.174Z,97540.40
2023-05-21T20:30:33.288Z,97541.20
2023-05-21T20:34:22.761Z,97535.00
2023-05-21T20:38:10.948Z,97542.00
2023-05-21T20:42:00.429Z,97546.60
2023-05-21T20:45:50.013Z,97547.80
2023-05-21T20:49:38.897Z,97545.00
2023-05-21T20:53:28.734Z,97538.80
2023-05-21T20:57:17.797Z,97543.60
2023-05-21T21:01:07.377Z,97535.00
2023-05-21T21:04:56.801Z,97544.80
2023-05-21T21:08:48.064Z,97544.60
2023-05-21T21:12:37.466Z,97546.40
2023-05-21T21:16:26.478Z,97549.00
2023-05-21T21:20:15.910Z,97554.20
2023-05-21T21:24:05.335Z,97558.40
2023-05-21T21:27:54.399Z,97558.40
2023-05-21T21:31:43.563Z,97560.40
2023-05-21T21:35:32.614Z,97559.20
2023-05-21T21:39:21.816Z,97559.00
2023-05-21T21:43:11.135Z,97564.40
2023-05-21T21:47:00.259Z,97562.00
2023-05-21T21:50:49.395Z,97568.40
2023-05-21T21:54:38.764Z,97570.40
2023-05-21T21:58:28.048Z,97571.80
2023-05-21T22:02:17.391Z,97575.20
2023-05-21T22:06:01.608Z,97573.00
2023-05-21T22:09:50.759Z,97569.20
2023-05-21T22:13:34.829Z,97567.00
2023-05-21T22:17:23.986Z,97565.80
2023-05-21T22:21:13.663Z,97564.00
2023-05-21T22:25:03.154Z,97561.60
2023-05-21T22:28:52.534Z,97564.00
2023-05-21T22:32:40.868Z,97562.40
2023-05-21T22:36:29.112Z,97565.40
2023-05-21T22:40:17.962Z,97563.60
2023-05-21T22:44:07.103Z,97572.20
2023-05-21T22:47:56.052Z,97571.00
2023-05-21T22:51:45.119Z,97566.60
2023-05-21T22:55:34.226Z,97568.40
2023-05-21T22:59:22.887Z,97568.20
2023-05-21T23:03:12.093Z,97570.40
2023-05-21T23:07:01.466Z,97572.20
2023-05-21T23:10:50.693Z,97573.80
2023-05-21T23:14:39.772Z,97566.00
2023-05-21T23:18:28.914Z,97566.20
2023-05-21T23:22:18.164Z,97567.80
2023-05-21T23:26:00.713Z,97567.40
2023-05-21T23:29:50.091Z,97564.00
2023-05-21T23:33:39.230Z,97563.80
2023-05-21T23:37:28.088Z,97561.00
2023-05-21T23:41:17.134Z,97558.20
2023-05-21T23:45:06.434Z,97555.80
2023-05-21T23:48:55.447Z,97555.60
2023-05-21T23:52:44.783Z,97548.00
2023-05-21T23:56:34.381Z,97547.60
